Tiempo atmosférico en la estación meteorológica de Abia De Obispalia, Cuenca (1020 m.)

Fecha
DESCASC
Temp. máxima en grados centígrados (hora)
DESCASC
Temp. mínima en grados centígrados (hora)
DESCASC
Temp. media en grados centígrados
DESCASC
Racha de viento máxima en m/sg (hora)
DESCASC
Velocidad máxima media en intervalos de 10 minutos(hora)
DESCASC
Precipitaciones diarias en mm
DESCASC
Precipitaciones de 00:00 a 06:00 en mm
DESCASC
Precipitaciones de 06:00 a 12:00 en mm
DESCASC
Precipitaciones de 12:00 a 18:00 en mm
DESCASC
Precipitaciones de 18:00 a 24:00 en mm
DESCASC
17-08-2017 35.7 (17:10) 16.9 (06:20) 26.3 8.06 (01:40) 5.83 (23:59) 0 0 0 0 0
16-08-2017 34.5 (17:20) 15.7 (07:50) 25.1 8.33 (14:10) 4.17 (01:00) 0 0 0 0 0
15-08-2017 34.2 (16:20) 17.6 (00:00) 25.9 8.61 (14:40) 5.28 (02:00) 0 0 0 0 0
14-08-2017 32.7 (17:10) 16.3 (07:10) 24.5 10.28 (16:30) 6.94 (17:50) 0 0 0 0 0
13-08-2017 31.8 (18:00) 15 (00:00) 23.4 9.72 (14:30) 6.67 (23:00) 0 0 0 0 0
12-08-2017 31.6 (17:00) 12.2 (00:00) 21.9 8.33 (23:30) 5.83 (23:30) 0 0 0 0 0
11-08-2017 29.4 (16:40) 6.7 (00:00) 18 7.22 (16:40) 3.89 (16:40) 0 0 0 0 0
10-08-2017 27.3 (17:20) 7.4 (00:00) 17.3 7.78 (15:00) 3.61 (14:50) 0 0 0 0 0
09-08-2017 29.7 (16:50) 14.2 (00:00) 22 10 (02:00) 6.11 (02:00) 0 0 0 0 0
08-08-2017 29.9 (18:40) 11 (00:00) 20.4 8.61 (15:00) 4.17 (16:20) 0 0 0 0 0
07-08-2017 35.7 (16:50) 18 (00:00) 26.9 13.06 (16:20) 6.39 (18:20) 0 0 0 0 0
06-08-2017 34.7 (16:50) 19.7 (00:00) 27.2 11.67 (16:20) 7.5 (21:30) 0 0 0 0 0
05-08-2017 38.7 (17:40) 21.1 (00:00) 29.9 10.83 (23:20) 6.39 (23:20) 0 0 0 0 0
04-08-2017 37.9 (17:50) 15.1 (00:00) 26.5 8.89 (18:40) 3.61 (16:20) 0 0 0 0 0
03-08-2017 35.6 (17:50) 15.3 (00:00) 25.4 7.5 (14:10) 3.89 (00:40) 0 0 0 0 0
02-08-2017 32.6 (17:00) 19.2 (00:00) 25.9 11.11 (20:00) 6.67 (20:00) 0 0 0 0 0
01-08-2017 32 (19:30) 15.7 (00:00) 23.8 9.72 (23:59) 6.11 (23:59) 0 0 0 0 0
31-07-2017 34.5 (16:30) 17.7 (00:00) 26.1 11.67 (17:20) 5.83 (17:10) 0 0 0 0 0
30-07-2017 36.6 (17:20) 15.7 (00:00) 26.1 10.56 (15:10) 5 (15:30) 0 0 0 0 0
29-07-2017 36 (17:20) 16.5 (00:00) 26.3 10 (17:10) 5.56 (04:10) 0 0 0 0 0
28-07-2017 36.1 (16:50) 15.8 (00:00) 25.9 9.72 (18:20) 4.17 (16:30) 0 0 0 0 0
27-07-2017 35.4 (18:00) 15.3 (00:00) 25.4 7.78 (14:20) 3.89 (16:10) 0 0 0 0 0
26-07-2017 31.9 (17:10) 10.2 (00:00) 21 8.61 (17:00) 4.17 (13:20) 0 0 0 0 0
25-07-2017 30.4 (17:30) 10.2 (00:00) 20.3 9.17 (19:20) 5 (19:10) 0 0 0 0 0
24-07-2017 31 (18:10) 13.1 (00:00) 22.1 10 (17:00) 5.28 (16:30) 0 0 0 0 0
23-07-2017 32.6 (16:40) 15 (00:00) 23.8 10.28 (17:20) 5.56 (18:00) 0 0 0 0 0
22-07-2017 32 (16:50) 14.7 (00:00) 23.3 9.72 (13:20) 5 (02:00) 0 0 0 0 0
21-07-2017 30.7 (17:40) 15.8 (00:00) 23.3 9.17 (00:30) 6.39 (00:40) 0 0 0 0 0
20-07-2017 31 (18:00) 12.4 (00:00) 21.7 10.28 (15:40) 6.67 (23:59) 0 0 0 0 0
19-07-2017 31.9 (17:00) 17.5 (00:00) 24.7 13.33 (01:40) 8.33 (01:30) 0 0 0 0 0

Gráficas

Temp. máximas Temp. mínimas Temp. medias Precipitaciones Rachas de viento máximas Velocidades máximas media en intervalos de 10 minutos

Datos horarios

Fecha y hora oficial Temperatura (ºC) Velocidad del viento (km/h) Dirección del viento Racha (km/h) Dirección de racha Precipitación (mm) Presión (hPa) Tendencia (hPa) Humedad (%)
2017-08-17 23:00:00 25.1 17 Sur 28 Sudeste 0 -- -- 37
2017-08-17 22:00:00 24.3 5 Sudoeste 7 Sur 0 -- -- 28
2017-08-17 21:00:00 29 3 Sudoeste 14 Sudoeste 0 -- -- 23
2017-08-17 20:00:00 32.8 9 Sudoeste 19 Sudoeste 0 -- -- 21
2017-08-17 19:00:00 34.2 12 Sudoeste 22 Sudeste 0 -- -- 21
2017-08-17 18:00:00 35.2 6 Sur 23 Sur 0 -- -- 21
2017-08-17 17:00:00 35.4 8 Sudoeste 22 Sudoeste 0 -- -- 20
2017-08-17 16:00:00 35.2 8 Sudoeste 25 Sur 0 -- -- 21
2017-08-17 15:00:00 34.2 9 Sur 23 Sur 0 -- -- 20
2017-08-17 14:00:00 33 8 Noroeste 20 Oeste 0 -- -- 24
2017-08-17 13:00:00 31.6 8 Sur 20 Sur 0 -- -- 28
2017-08-17 12:00:00 30 9 Sur 18 Sudoeste 0 -- -- 40
2017-08-17 11:00:00 27.8 12 Sur 27 Sudeste 0 -- -- 48
2017-08-17 10:00:00 25.2 16 Sudeste 25 Sudeste 0 -- -- 53
2017-08-17 09:00:00 22.3 13 Sudeste 19 Sudeste 0 -- -- 61
2017-08-17 08:00:00 17.6 2 Nordeste 5 Nordeste 0 -- -- 82
2017-08-17 07:00:00 17.3 0 Calma 8 Este 0 -- -- 82
2017-08-17 06:00:00 17.4 0 Calma 6 Norte 0 -- -- 84
2017-08-17 05:00:00 18.7 0 Calma 11 Sur 0 -- -- 77
2017-08-17 04:00:00 19.9 5 Sudeste 12 Sudeste 0 -- -- 77
2017-08-17 03:00:00 20.2 5 Sudeste 12 Sudeste 0 -- -- 74
2017-08-17 02:00:00 21.5 6 Sudeste 29 Sudeste 0 -- -- 66
2017-08-17 01:00:00 21.2 14 Sudeste 26 Sudeste 0 -- -- 23
2017-08-17 00:00:00 18.3 3 Sur 3 Sur 0 -- -- 28
2017-08-16 23:00:00 19.2 0 Calma 3 Oeste 0 -- -- 29
2017-08-16 22:00:00 23.1 3 Noroeste 11 Noroeste 0 -- -- 25
2017-08-16 21:00:00 28.4 8 Noroeste 14 Noroeste 0 -- -- 21
2017-08-16 20:00:00 32.8 6 Noroeste 18 Noroeste 0 -- -- 16
2017-08-16 19:00:00 33.7 7 Oeste 22 Oeste 0 -- -- 14
2017-08-16 18:00:00 34.2 6 Oeste 22 Noroeste 0 -- -- 15
2017-08-16 17:00:00 34.1 9 Oeste 27 Noroeste 0 -- -- 15
2017-08-16 16:00:00 33.7 12 Oeste 25 Noroeste 0 -- -- 17
2017-08-16 15:00:00 33.4 9 Sudoeste 30 Sudoeste 0 -- -- 19
2017-08-16 14:00:00 32.3 9 Sudoeste 28 Sudoeste 0 -- -- 22
2017-08-16 13:00:00 31 10 Sudoeste 22 Oeste 0 -- -- 28
2017-08-16 12:00:00 29.2 7 Sudeste 12 Sudeste 0 -- -- 34
2017-08-16 11:00:00 26.8 3 Sudeste 10 Sudoeste 0 -- -- 53
2017-08-16 10:00:00 22.5 4 Sur 8 Sudoeste 0 -- -- 72
2017-08-16 09:00:00 19.5 0 Calma 3 Sudeste 0 -- -- 84
2017-08-16 08:00:00 15.7 0 Calma 4 Noroeste 0 -- -- 92
2017-08-16 07:00:00 16.1 0 Calma 4 Noroeste 0 -- -- 90
2017-08-16 06:00:00 16.5 0 Calma 4 Noroeste 0 -- -- 87
2017-08-16 05:00:00 16.9 0 Calma 5 Noroeste 0 -- -- 84
2017-08-16 04:00:00 18.5 0 Calma 6 Sur 0 -- -- 79
2017-08-16 03:00:00 20.6 0 Calma 18 Sur 0 -- -- 70
2017-08-16 02:00:00 22.1 14 Sur 22 Sur 0 -- -- 64
2017-08-16 01:00:00 24 15 Sur 19 Sur 0 -- -- 49
2017-08-16 00:00:00 20.5 8 Sur 10 Sudeste 0 -- -- 36
2017-08-15 23:00:00 21.8 0 Calma 4 Noroeste 0 -- -- 34
2017-08-15 22:00:00 25.3 0 Calma 10 Noroeste 0 -- -- 31
2017-08-15 21:00:00 28.8 7 Noroeste 21 Noroeste 0 -- -- 28
2017-08-15 20:00:00 29.9 9 Noroeste 19 Norte 0 -- -- 28
2017-08-15 19:00:00 31.5 11 Noroeste 23 Oeste 0 -- -- 25
2017-08-15 18:00:00 32.3 9 Noroeste 26 Oeste 0 -- -- 25
2017-08-15 17:00:00 33 11 Oeste 27 Oeste 0 -- -- 25
2017-08-15 16:00:00 34.1 8 Oeste 26 Sudoeste 0 -- -- 26
2017-08-15 15:00:00 33.5 11 Sudoeste 31 Sudoeste 0 -- -- 27
2017-08-15 14:00:00 32.5 12 Sudoeste 28 Sur 0 -- -- 30
2017-08-15 13:00:00 31.2 12 Sudoeste 30 Sur 0 -- -- 31
2017-08-15 12:00:00 29.1 9 Sudoeste 21 Sudoeste 0 -- -- 37
2017-08-15 11:00:00 26.9 8 Sur 14 Sur 0 -- -- 39
2017-08-15 10:00:00 23.5 8 Sudeste 22 Sudeste 0 -- -- 49
2017-08-15 09:00:00 19.7 10 Sudeste 16 Sudeste 0 -- -- 57
2017-08-15 08:00:00 17.6 10 Sudeste 21 Sudeste 0 -- -- 58
2017-08-15 07:00:00 17.6 10 Sudeste 19 Sudeste 0 -- -- 56
2017-08-15 06:00:00 17.8 7 Sudeste 27 Sudeste 0 -- -- 52
2017-08-15 05:00:00 18.3 12 Sudeste 30 Sudeste 0 -- -- 52
2017-08-15 04:00:00 18.3 14 Sudeste 25 Sudeste 0 -- -- 47
2017-08-15 03:00:00 18.9 15 Sudeste 30 Sudeste 0 -- -- 55
2017-08-15 02:00:00 19.7 19 Sudeste 31 Sudeste 0 -- -- 55
2017-08-15 01:00:00 20.6 14 Sudeste 28 Sudeste 0 -- -- 54
2017-08-15 00:00:00 21.9 16 Sudeste 30 Sudeste 0 -- -- 52
2017-08-14 23:00:00 22.9 13 Sudeste 28 Sudeste 0 -- -- 51
2017-08-14 22:00:00 24.5 15 Sudeste 31 Sudeste 0 -- -- 43
2017-08-14 21:00:00 26.7 20 Sudeste 31 Sudeste 0 -- -- 38
2017-08-14 20:00:00 29.4 20 Sudeste 31 Sudeste 0 -- -- 33
2017-08-14 19:00:00 31.2 21 Sur 35 Sur 0 -- -- 28
2017-08-14 18:00:00 31.8 22 Sur 37 Sur 0 -- -- 24
2017-08-14 17:00:00 32.6 19 Sur 37 Sudeste 0 -- -- 22
2017-08-14 16:00:00 32.5 19 Sudeste 31 Sudeste 0 -- -- 23
2017-08-14 15:00:00 31.8 17 Sur 32 Sudeste 0 -- -- 22
2017-08-14 14:00:00 31 16 Sur 35 Sudeste 0 -- -- 22
2017-08-14 13:00:00 29.3 21 Sur 36 Sur 0 -- -- 25
2017-08-14 12:00:00 28.4 15 Sudeste 27 Sudeste 0 -- -- 26
2017-08-14 11:00:00 25.8 15 Sudeste 30 Sudeste 0 -- -- 29
2017-08-14 10:00:00 23.1 12 Sudeste 24 Sudeste 0 -- -- 34
2017-08-14 09:00:00 19.3 10 Sudeste 28 Sudeste 0 -- -- 44
2017-08-14 08:00:00 16.4 13 Sudeste 30 Sudeste 0 -- -- 56
2017-08-14 07:00:00 16.4 16 Sudeste 36 Sudeste 0 -- -- 55
2017-08-14 06:00:00 16.5 18 Sudeste 30 Sudeste 0 -- -- 60
2017-08-14 05:00:00 17 18 Sudeste 32 Sudeste 0 -- -- 61
2017-08-14 04:00:00 17.2 19 Sudeste 31 Sudeste 0 -- -- 65
2017-08-14 03:00:00 17.7 14 Sudeste 28 Sudeste 0 -- -- 64
2017-08-14 02:00:00 18.2 18 Sudeste 27 Sudeste 0 -- -- 64
2017-08-14 01:00:00 19.2 19 Sudeste 31 Sudeste 0 -- -- 64
2017-08-14 00:00:00 20.8 18 Sudeste 35 Sur 0 -- -- 61
2017-08-13 23:00:00 22.7 24 Sudeste 34 Sudeste 0 -- -- 56
2017-08-13 22:00:00 24.2 20 Sudeste 28 Sur 0 -- -- 45
2017-08-13 21:00:00 24.6 9 Sur 20 Sur 0 -- -- 31
2017-08-13 20:00:00 29.6 10 Sur 21 Sur 0 -- -- 24
2017-08-13 19:00:00 31 11 Sur 21 Sur 0 -- -- 20
2017-08-13 18:00:00 31.8 9 Sudeste 25 Sur 0 -- -- 21
2017-08-13 17:00:00 31.5 11 Sudoeste 24 Sur 0 -- -- 23
2017-08-13 16:00:00 31.2 12 Sur 29 Sur 0 -- -- 24
2017-08-13 15:00:00 30.5 18 Sur 35 Sur 0 -- -- 24
2017-08-13 14:00:00 30 17 Sur 30 Sur 0 -- -- 22
2017-08-13 13:00:00 29.1 19 Sur 30 Sur 0 -- -- 22
2017-08-13 12:00:00 27.5 14 Sur 27 Sudeste 0 -- -- 28
2017-08-13 11:00:00 25.2 17 Sudeste 26 Sudeste 0 -- -- 34
2017-08-13 10:00:00 22.7 13 Sudeste 24 Sudeste 0 -- -- 43
2017-08-13 09:00:00 19.3 6 Sudeste 16 Sudeste 0 -- -- 56
2017-08-13 08:00:00 15.4 0 Calma 8 Este 0 -- -- 65
2017-08-13 07:00:00 15.1 4 Este 13 Sudeste 0 -- -- 66
2017-08-13 06:00:00 15.4 3 Sudeste 11 Sudeste 0 -- -- 61
2017-08-13 05:00:00 16 3 Este 20 Sudeste 0 -- -- 59
2017-08-13 04:00:00 16.6 10 Sudeste 24 Sudeste 0 -- -- 64
2017-08-13 03:00:00 17.2 13 Sudeste 27 Sudeste 0 -- -- 64
2017-08-13 02:00:00 17.7 14 Sudeste 26 Sudeste 0 -- -- 65
2017-08-13 01:00:00 19 14 Sudeste 24 Sudeste 0 -- -- 60
2017-08-13 00:00:00 20.8 15 Sudeste 30 Sudeste 0 -- -- 50
2017-08-12 23:00:00 21.7 14 Sur 18 Sur 0 -- -- 33
2017-08-12 22:00:00 23.2 10 Sur 13 Sur 0 -- -- 29
2017-08-12 21:00:00 25.9 4 Sudoeste 15 Noroeste 0 -- -- 27
2017-08-12 20:00:00 30.1 4 Oeste 18 Sur 0 -- -- 23
2017-08-12 19:00:00 31.2 7 Oeste 20 Oeste 0 -- -- 21
2017-08-12 18:00:00 31 8 Sur 24 Oeste 0 -- -- 22
2017-08-12 17:00:00 31.6 6 Nordeste 18 Noroeste 0 -- -- 23
2017-08-12 16:00:00 30.5 8 Oeste 21 Sudeste 0 -- -- 25
2017-08-12 15:00:00 29 7 Oeste 21 Sur 0 -- -- 29
2017-08-12 14:00:00 27.9 9 Noroeste 20 Norte 0 -- -- 30
2017-08-12 13:00:00 26.6 7 Oeste 21 Sur 0 -- -- 34
2017-08-12 12:00:00 25.6 6 Sur 21 Sudeste 0 -- -- 38
2017-08-12 11:00:00 23 10 Sudeste 23 Sudeste 0 -- -- 46
2017-08-12 10:00:00 21.3 9 Sudeste 17 Este 0 -- -- 52
2017-08-12 09:00:00 17.8 4 Este 9 Sudeste 0 -- -- 54
2017-08-12 08:00:00 13.2 2 Norte 9 Sudeste 0 -- -- 69
2017-08-12 07:00:00 12.6 4 Sudeste 8 Sudeste 0 -- -- 69
2017-08-12 06:00:00 12.4 2 Noroeste 5 Nordeste 0 -- -- 67
2017-08-12 05:00:00 13.9 2 Noroeste 12 Este 0 -- -- 60
2017-08-12 04:00:00 14.5 0 Calma 7 Este 0 -- -- 60
2017-08-12 03:00:00 15.6 2 Nordeste 15 Sur 0 -- -- 52
2017-08-12 02:00:00 17.4 5 Sudeste 21 Sudeste 0 -- -- 30
2017-08-12 01:00:00 17.9 12 Sudeste 18 Sudeste 0 -- -- 25
2017-08-12 00:00:00 17.4 9 Sudeste 19 Este 0 -- -- 24
2017-08-11 23:00:00 15.4 2 Sudeste 6 Sudeste 0 -- -- 26
2017-08-11 22:00:00 17.1 0 Calma 10 Noroeste 0 -- -- 25
2017-08-11 21:00:00 23.7 6 Norte 18 Norte 0 -- -- 17
2017-08-11 20:00:00 27.8 12 Norte 23 Norte 0 -- -- 14
2017-08-11 19:00:00 28.9 7 Norte 24 Noroeste 0 -- -- 14
2017-08-11 18:00:00 28.3 13 Noroeste 24 Nordeste 0 -- -- 14
2017-08-11 17:00:00 29.2 14 Noroeste 26 Noroeste 0 -- -- 12
2017-08-11 16:00:00 28.8 9 Norte 24 Norte 0 -- -- 13
2017-08-11 15:00:00 27.8 10 Noroeste 21 Noroeste 0 -- -- 14
2017-08-11 14:00:00 26.5 9 Noroeste 20 Noroeste 0 -- -- 15
2017-08-11 13:00:00 25.5 6 Noroeste 13 Oeste 0 -- -- 15
2017-08-11 12:00:00 22.3 5 Norte 19 Norte 0 -- -- 17
2017-08-11 11:00:00 20.4 3 Noroeste 10 Noroeste 0 -- -- 29
2017-08-11 10:00:00 16.7 2 Norte 5 Noroeste 0 -- -- 48
2017-08-11 09:00:00 11.9 0 Calma 3 Noroeste 0 -- -- 69
2017-08-11 08:00:00 7.2 0 Calma 4 Nordeste 0 -- -- 87
2017-08-11 07:00:00 7.1 0 Calma 3 Sur 0 -- -- 79
2017-08-11 06:00:00 7.9 0 Calma 3 Noroeste 0 -- -- 76
2017-08-11 05:00:00 9.5 0 Calma 7 Este 0 -- -- 71
2017-08-11 04:00:00 11.3 3 Este 9 Este 0 -- -- 65
2017-08-11 03:00:00 10.7 2 Sur 5 Sur 0 -- -- 64
2017-08-11 02:00:00 14.2 2 Nordeste 13 Sudeste 0 -- -- 50
2017-08-11 01:00:00 15.6 7 Sudeste 14 Sudeste 0 -- -- 45
2017-08-11 00:00:00 15.6 4 Sudeste 12 Sudeste 0 -- -- 42
2017-08-10 23:00:00 16.7 0 Calma 15 Norte 0 -- -- 38
2017-08-10 22:00:00 19.5 9 Norte 19 Norte 0 -- -- 32
2017-08-10 21:00:00 22 9 Norte 21 Norte 0 -- -- 26
2017-08-10 20:00:00 26.2 10 Norte 23 Noroeste 0 -- -- 21
2017-08-10 19:00:00 27.2 9 Norte 24 Norte 0 -- -- 19
2017-08-10 18:00:00 27.2 10 Noroeste 27 Noroeste 0 -- -- 19
2017-08-10 17:00:00 26.8 5 Noroeste 25 Noroeste 0 -- -- 19
2017-08-10 16:00:00 26 11 Noroeste 26 Norte 0 -- -- 20
2017-08-10 15:00:00 25.2 11 Norte 28 Norte 0 -- -- 21
2017-08-10 14:00:00 24.4 6 Noroeste 16 Oeste 0 -- -- 23
2017-08-10 13:00:00 22.9 8 Noroeste 21 Noroeste 0 -- -- 23
2017-08-10 12:00:00 21.2 6 Norte 13 Norte 0 -- -- 30
2017-08-10 11:00:00 19.2 5 Nordeste 17 Nordeste 0 -- -- 35
2017-08-10 10:00:00 15.8 9 Nordeste 19 Nordeste 0 -- -- 44
2017-08-10 09:00:00 12.4 8 Nordeste 15 Nordeste 0 -- -- 51
2017-08-10 08:00:00 8.3 5 Nordeste 12 Nordeste 0 -- -- 66
2017-08-10 07:00:00 7.5 4 Nordeste 10 Norte 0 -- -- 73
2017-08-10 06:00:00 9.5 2 Nordeste 8 Norte 0 -- -- 67
2017-08-10 05:00:00 10.8 5 Nordeste 12 Norte 0 -- -- 63
2017-08-10 04:00:00 11.7 5 Norte 17 Nordeste 0 -- -- 60
2017-08-10 03:00:00 12.3 2 Nordeste 10 Nordeste 0 -- -- 59
2017-08-10 02:00:00 13 6 Norte 22 Norte 0 -- -- 59
2017-08-10 01:00:00 13.6 8 Nordeste 15 Nordeste 0 -- -- 59
2017-08-10 00:00:00 14.5 9 Nordeste 24 Nordeste 0 -- -- 57
2017-08-09 23:00:00 15.7 9 Nordeste 23 Nordeste 0 -- -- 55
2017-08-09 22:00:00 17.3 8 Nordeste 29 Norte 0 -- -- 51
2017-08-09 21:00:00 19.7 18 Norte 36 Norte 0 -- -- 45
2017-08-09 20:00:00 24.3 18 Norte 34 Norte 0 -- -- 36
2017-08-09 19:00:00 25.9 13 Norte 26 Norte 0 -- -- 35
2017-08-09 18:00:00 28.2 11 Oeste 30 Oeste 0 -- -- 25
2017-08-09 17:00:00 28.8 13 Noroeste 30 Noroeste 0 -- -- 24
2017-08-09 16:00:00 29 9 Oeste 33 Noroeste 0 -- -- 20
2017-08-09 15:00:00 28.4 9 Noroeste 32 Sur 0 -- -- 24
2017-08-09 14:00:00 27.3 13 Sudoeste 31 Sur 0 -- -- 29
2017-08-09 13:00:00 26.5 16 Sur 30 Sur 0 -- -- 35
2017-08-09 12:00:00 23.2 18 Sur 36 Sur 0 -- -- 50
2017-08-09 11:00:00 22.5 21 Sudeste 36 Sur 0 -- -- 57
2017-08-09 10:00:00 19.9 21 Sudeste 32 Sudeste 0 -- -- 69
2017-08-09 09:00:00 17.6 12 Sudeste 22 Sudeste 0 -- -- 82
2017-08-09 08:00:00 15.3 10 Sudeste 24 Sudeste 0 -- -- 91
2017-08-09 07:00:00 15.1 8 Sudeste 21 Sudeste 0 -- -- 91
2017-08-09 06:00:00 15.5 12 Sudeste 29 Sudeste 0 -- -- 89
2017-08-09 05:00:00 15.9 16 Sudeste 24 Sudeste 0 -- -- 87
2017-08-09 04:00:00 16.2 13 Sudeste 28 Sudeste 0 -- -- 84
2017-08-09 03:00:00 16.8 17 Sudeste 32 Sudeste 0 -- -- 80
2017-08-09 02:00:00 17.6 22 Sudeste 36 Sudeste 0 -- -- 74
2017-08-09 01:00:00 15.8 8 Sudeste 17 Sudeste 0 -- -- 48
2017-08-09 00:00:00 14.7 0 Calma 3 Noroeste 0 -- -- 47
2017-08-08 23:00:00 16 2 Sur 4 Sudeste 0 -- -- 42
2017-08-08 22:00:00 18.2 0 Calma 4 Norte 0 -- -- 37
2017-08-08 21:00:00 24 0 Calma 13 Norte 0 -- -- 28
2017-08-08 20:00:00 28.5 9 Noroeste 26 Norte 0 -- -- 21
2017-08-08 19:00:00 29.3 11 Noroeste 28 Norte 0 -- -- 20
2017-08-08 18:00:00 29.3 6 Noroeste 27 Oeste 0 -- -- 20
2017-08-08 17:00:00 29 12 Oeste 26 Noroeste 0 -- -- 21
2017-08-08 16:00:00 29 12 Noroeste 28 Noroeste 0 -- -- 22
2017-08-08 15:00:00 28 14 Norte 31 Noroeste 0 -- -- 24
2017-08-08 14:00:00 27.3 6 Oeste 22 Norte 0 -- -- 26
2017-08-08 13:00:00 26.1 9 Noroeste 23 Norte 0 -- -- 25
2017-08-08 12:00:00 24.5 12 Noroeste 22 Norte 0 -- -- 27
2017-08-08 11:00:00 23.8 12 Norte 21 Norte 0 -- -- 29
2017-08-08 10:00:00 21.7 8 Norte 15 Norte 0 -- -- 32
2017-08-08 09:00:00 18.2 3 Norte 6 Norte 0 -- -- 38
2017-08-08 08:00:00 11.4 0 Calma 4 Sudoeste 0 -- -- 52
2017-08-08 07:00:00 11.6 0 Calma 6 Oeste 0 -- -- 45
2017-08-08 06:00:00 13 4 Oeste 6 Oeste 0 -- -- 40
2017-08-08 05:00:00 17.4 2 Oeste 13 Oeste 0 -- -- 31
2017-08-08 04:00:00 20.1 4 Sudoeste 15 Oeste 0 -- -- 25
2017-08-08 03:00:00 22.3 5 Oeste 18 Oeste 0 -- -- 20
2017-08-08 02:00:00 23.9 9 Oeste 21 Oeste 0 -- -- 17
2017-08-08 01:00:00 24.4 3 Sudoeste 12 Oeste 0 -- -- 16
2017-08-08 00:00:00 25 5 Sudoeste 15 Noroeste 0 -- -- 16
2017-08-07 23:00:00 26.7 5 Noroeste 31 Oeste 0 -- -- 15
2017-08-07 22:00:00 29 11 Oeste 37 Oeste 0 -- -- 14
2017-08-07 21:00:00 30.6 17 Oeste 36 Oeste 0 -- -- 14
2017-08-07 20:00:00 32.7 22 Oeste 40 Oeste 0 -- -- 13
2017-08-07 19:00:00 35.1 15 Oeste 45 Oeste 0 -- -- 12
2017-08-07 18:00:00 35.1 20 Oeste 44 Oeste 0 -- -- 12
2017-08-07 17:00:00 35.7 18 Oeste 47 Oeste 0 -- -- 12
2017-08-07 16:00:00 34.7 15 Oeste 39 Oeste 0 -- -- 12
2017-08-07 15:00:00 33.8 12 Oeste 33 Oeste 0 -- -- 15
2017-08-07 14:00:00 32.3 15 Oeste 29 Sudoeste 0 -- -- 14
2017-08-07 13:00:00 31.4 10 Sudoeste 25 Sudoeste 0 -- -- 18
2017-08-07 12:00:00 29.3 14 Sudoeste 26 Sudoeste 0 -- -- 25
2017-08-07 11:00:00 26.5 11 Sur 19 Sur 0 -- -- 43
2017-08-07 10:00:00 22.9 10 Sudeste 23 Sudeste 0 -- -- 69
2017-08-07 09:00:00 20.2 9 Sudeste 21 Sudeste 0 -- -- 86
2017-08-07 08:00:00 18.2 6 Este 19 Este 0 -- -- 94
2017-08-07 07:00:00 18.1 5 Sudeste 17 Este 0 -- -- 94
2017-08-07 06:00:00 18.4 8 Sudeste 15 Sudeste 0 -- -- 93
2017-08-07 05:00:00 18.9 9 Sudeste 20 Sudeste 0 -- -- 92
2017-08-07 04:00:00 19.2 9 Sudeste 21 Sudeste 0 -- -- 91
2017-08-07 03:00:00 19.7 12 Sudeste 30 Sudeste 0 -- -- 90
2017-08-07 02:00:00 20.4 19 Sudeste 30 Sudeste 0 -- -- 87
2017-08-07 01:00:00 21.1 19 Sudeste 34 Sudeste 0 -- -- 85
2017-08-07 00:00:00 21.8 20 Sudeste 36 Sudeste 0 -- -- 81
2017-08-06 23:00:00 22.9 22 Sudeste 39 Sudeste 0 -- -- 76
2017-08-06 22:00:00 24.5 20 Sudeste 38 Sudeste 0 -- -- 67
2017-08-06 21:00:00 26.8 26 Sudeste 37 Sudeste 0 -- -- 57
2017-08-06 20:00:00 30.3 24 Sur 42 Sudeste 0 -- -- 44
2017-08-06 19:00:00 32.8 23 Sudeste 40 Sur 0 -- -- 35
2017-08-06 18:00:00 31.7 22 Sur 39 Sudeste 0 -- -- 36
2017-08-06 17:00:00 34.7 14 Sur 42 Sur 0 -- -- 27
2017-08-06 16:00:00 34.3 23 Sur 37 Sur 0 -- -- 26
2017-08-06 15:00:00 34.1 18 Sur 36 Sur 0 -- -- 27
2017-08-06 14:00:00 33 21 Sur 30 Sur 0 -- -- 29
2017-08-06 13:00:00 31.9 17 Sur 31 Sur 0 -- -- 31
2017-08-06 12:00:00 30.4 20 Sur 32 Sudeste 0 -- -- 37
2017-08-06 11:00:00 28.5 16 Sur 24 Sur 0 -- -- 40
2017-08-06 10:00:00 26.4 12 Sudeste 23 Sudeste 0 -- -- 47
2017-08-06 09:00:00 23.8 10 Sudeste 24 Sudeste 0 -- -- 53
2017-08-06 08:00:00 20.3 6 Sudeste 17 Sudeste 0 -- -- 64
2017-08-06 07:00:00 19.9 4 Sudeste 12 Sudeste 0 -- -- 64
2017-08-06 06:00:00 20.5 3 Sudeste 15 Sudeste 0 -- -- 62
2017-08-06 05:00:00 21.6 8 Sudeste 21 Sudeste 0 -- -- 57
2017-08-06 04:00:00 22.2 11 Sudeste 21 Sudeste 0 -- -- 55
2017-08-06 03:00:00 22.8 10 Sudeste 26 Sudeste 0 -- -- 54
2017-08-06 02:00:00 23.4 16 Sudeste 28 Sudeste 0 -- -- 55
2017-08-06 01:00:00 24.3 19 Sudeste 30 Sudeste 0 -- -- 57
2017-08-06 00:00:00 25.5 22 Sudeste 39 Sudeste 0 -- -- 55
2017-08-05 23:00:00 27.8 16 Sudeste 37 Sudeste 0 -- -- 48
2017-08-05 22:00:00 27.9 3 Sudoeste 9 Oeste 0 -- -- 32
2017-08-05 21:00:00 31.8 4 Sudoeste 8 Oeste 0 -- -- 27
2017-08-05 20:00:00 34.4 5 Noroeste 21 Sudoeste 0 -- -- 22
2017-08-05 19:00:00 35.6 11 Oeste 26 Oeste 0 -- -- 20
2017-08-05 18:00:00 37.9 12 Oeste 29 Oeste 0 -- -- 19
2017-08-05 17:00:00 37.2 11 Oeste 27 Noroeste 0 -- -- 19
2017-08-05 16:00:00 37.3 10 Sudoeste 30 Sudoeste 0 -- -- 20
2017-08-05 15:00:00 37 13 Sur 25 Sudoeste 0 -- -- 21
2017-08-05 14:00:00 35.7 13 Sur 33 Sudeste 0 -- -- 23
2017-08-05 13:00:00 34.6 10 Sur 21 Sur 0 -- -- 25
2017-08-05 12:00:00 33.2 9 Sur 20 Sur 0 -- -- 29
2017-08-05 11:00:00 31.2 13 Sudeste 26 Sudeste 0 -- -- 32
2017-08-05 10:00:00 28.7 17 Sudeste 30 Sudeste 0 -- -- 38
2017-08-05 09:00:00 26.2 13 Sudeste 22 Sudeste 0 -- -- 43
2017-08-05 08:00:00 22.7 9 Sudeste 17 Sudeste 0 -- -- 52
2017-08-05 07:00:00 21.8 6 Sudeste 15 Sudeste 0 -- -- 54
2017-08-05 06:00:00 22 4 Este 13 Sudeste 0 -- -- 54
2017-08-05 05:00:00 22.1 4 Sudeste 13 Sudeste 0 -- -- 53
2017-08-05 04:00:00 23.1 2 Norte 17 Sudeste 0 -- -- 51
2017-08-05 03:00:00 24 12 Sudeste 25 Sudeste 0 -- -- 49
2017-08-05 02:00:00 24.7 14 Sudeste 27 Sudeste 0 -- -- 48
2017-08-05 01:00:00 23.1 14 Sudeste 28 Sudeste 0 -- -- 43
2017-08-05 00:00:00 21.4 0 Calma 4 Sur 0 -- -- 44
2017-08-04 23:00:00 23.3 0 Calma 10 Oeste 0 -- -- 39
2017-08-04 22:00:00 27.8 4 Oeste 11 Noroeste 0 -- -- 31
2017-08-04 21:00:00 32.4 6 Noroeste 19 Noroeste 0 -- -- 24
2017-08-04 20:00:00 36.2 6 Oeste 22 Noroeste 0 -- -- 20
2017-08-04 19:00:00 36.9 9 Noroeste 32 Sudoeste 0 -- -- 20
2017-08-04 18:00:00 37.8 9 Noroeste 23 Noroeste 0 -- -- 19
2017-08-04 17:00:00 37.1 10 Noroeste 24 Noroeste 0 -- -- 20
2017-08-04 16:00:00 36.6 9 Oeste 28 Noroeste 0 -- -- 21
2017-08-04 15:00:00 35.8 9 Oeste 21 Oeste 0 -- -- 20
2017-08-04 14:00:00 34.7 11 Noroeste 23 Noroeste 0 -- -- 22
2017-08-04 13:00:00 34.1 5 Oeste 13 Oeste 0 -- -- 22
2017-08-04 12:00:00 33.2 5 Norte 12 Este 0 -- -- 23
2017-08-04 11:00:00 31 4 Nordeste 10 Sudeste 0 -- -- 28
2017-08-04 10:00:00 28.7 5 Norte 10 Nordeste 0 -- -- 36
2017-08-04 09:00:00 24.5 0 Calma 8 Nordeste 0 -- -- 40
2017-08-04 08:00:00 18.7 2 Sudeste 6 Este 0 -- -- 48
2017-08-04 07:00:00 15.5 0 Calma 3 Sudoeste 0 -- -- 48
2017-08-04 06:00:00 15.3 0 Calma 4 Sudeste 0 -- -- 49
2017-08-04 05:00:00 17.6 2 Sudeste 8 Sudeste 0 -- -- 39
2017-08-04 04:00:00 17.7 2 Sur 3 Sur 0 -- -- 38
2017-08-04 03:00:00 17.8 3 Sur 4 Sur 0 -- -- 36
2017-08-04 02:00:00 18 2 Sudoeste 3 Sudoeste 0 -- -- 37
2017-08-04 01:00:00 18.7 0 Calma -- -- 0 -- -- 36
2017-08-04 00:00:00 19.4 0 Calma 3 Sudoeste 0 -- -- 36
2017-08-03 23:00:00 21.5 2 Sudoeste 8 Oeste 0 -- -- 32
2017-08-03 22:00:00 28 4 Oeste 12 Noroeste 0 -- -- 21
2017-08-03 21:00:00 30.6 8 Noroeste 18 Noroeste 0 -- -- 18
2017-08-03 20:00:00 34.1 9 Oeste 21 Noroeste 0 -- -- 15
2017-08-03 19:00:00 35 9 Oeste 22 Oeste 0 -- -- 16
2017-08-03 18:00:00 35.5 6 Oeste 24 Oeste 0 -- -- 18
2017-08-03 17:00:00 34.9 13 Noroeste 25 Noroeste 0 -- -- 20
2017-08-03 16:00:00 34.9 8 Oeste 24 Oeste 0 -- -- 21
2017-08-03 15:00:00 33.9 7 Noroeste 27 Noroeste 0 -- -- 23
2017-08-03 14:00:00 33.4 9 Oeste 24 Oeste 0 -- -- 24
2017-08-03 13:00:00 32.5 8 Sudoeste 21 Oeste 0 -- -- 25
2017-08-03 12:00:00 31 6 Norte 12 Noroeste 0 -- -- 37
2017-08-03 11:00:00 29.6 3 Este 8 Norte 0 -- -- 44
2017-08-03 10:00:00 26.6 2 Nordeste 4 Noroeste 0 -- -- 50
2017-08-03 09:00:00 22.4 0 Calma 2 Norte 0 -- -- 63
2017-08-03 08:00:00 16.5 0 Calma 2 Sur 0 -- -- 89
2017-08-03 07:00:00 15.5 0 Calma 2 Sudoeste 0 -- -- 84
2017-08-03 06:00:00 16.1 0 Calma 2 Sudeste 0 -- -- 80
2017-08-03 05:00:00 16.7 0 Calma 5 Sur 0 -- -- 77
2017-08-03 04:00:00 17.7 0 Calma 4 Sudoeste 0 -- -- 74
2017-08-03 03:00:00 19.8 3 Sudeste 9 Este 0 -- -- 65
2017-08-03 02:00:00 21.1 5 Sudeste 19 Sudeste 0 -- -- 63
2017-08-03 01:00:00 22.1 11 Sudeste 21 Sudeste 0 -- -- 59
2017-08-03 00:00:00 22.4 12 Sudeste 26 Sudeste 0 -- -- 60
2017-08-02 23:00:00 22.7 15 Sudeste 24 Sudeste 0 -- -- 61
2017-08-02 22:00:00 23.6 18 Sudeste 31 Sudeste 0 -- -- 59
2017-08-02 21:00:00 24.5 20 Sudeste 32 Sudeste 0 -- -- 56
2017-08-02 20:00:00 25.8 24 Sudeste 40 Sudeste 0 -- -- 51
2017-08-02 19:00:00 28.3 15 Este 35 Este 0 -- -- 48
2017-08-02 18:00:00 30.5 9 Sur 24 Sudeste 0 -- -- 36
2017-08-02 17:00:00 32.6 12 Sudeste 29 Sur 0 -- -- 32
2017-08-02 16:00:00 31.8 15 Sur 32 Sudeste 0 -- -- 32
2017-08-02 15:00:00 30.8 17 Sudeste 32 Sudeste 0 -- -- 34
2017-08-02 14:00:00 29.9 14 Sudeste 29 Este 0 -- -- 37
2017-08-02 13:00:00 28.7 17 Sudeste 30 Sudeste 0 -- -- 39
2017-08-02 12:00:00 27.2 14 Sudeste 25 Sudeste 0 -- -- 45
2017-08-02 11:00:00 23.6 9 Sudeste 25 Sudeste 0 -- -- 62
2017-08-02 10:00:00 20.2 7 Sudeste 22 Sudeste 0 -- -- 78
2017-08-02 09:00:00 20 5 Sudeste 24 Sudeste 0 -- -- 75
2017-08-02 08:00:00 19.4 17 Sudeste 30 Sudeste 0 -- -- 77
2017-08-02 07:00:00 19.9 21 Sudeste 29 Sudeste 0 -- -- 73
2017-08-02 06:00:00 19.6 14 Sudeste 23 Sudeste 0 -- -- 76
2017-08-02 05:00:00 19.6 12 Sudeste 19 Sudeste 0 -- -- 80
2017-08-02 04:00:00 20.1 13 Sudeste 24 Sudeste 0 -- -- 80
2017-08-02 03:00:00 20.4 15 Sudeste 26 Sudeste 0 -- -- 78
2017-08-02 02:00:00 21 15 Sudeste 25 Sudeste 0 -- -- 74
2017-08-02 01:00:00 21.5 8 Sudeste 28 Sudeste 0 -- -- 70
2017-08-02 00:00:00 23 22 Sudeste 35 Sudeste 0 -- -- 61
2017-08-01 23:00:00 21.7 12 Sur 17 Sudeste 0 -- -- 29
2017-08-01 22:00:00 21.3 4 Sudoeste 5 Sur 0 -- -- 29
2017-08-01 21:00:00 27.4 2 Oeste 17 Oeste 0 -- -- 21
2017-08-01 20:00:00 31.5 4 Sudoeste 18 Noroeste 0 -- -- 15
2017-08-01 19:00:00 31.5 11 Sudoeste 28 Sur 0 -- -- 15
2017-08-01 18:00:00 31.8 9 Oeste 26 Sur 0 -- -- 15
2017-08-01 17:00:00 30.5 9 Sudoeste 26 Sur 0 -- -- 15
2017-08-01 16:00:00 29.8 11 Sudoeste 30 Sur 0 -- -- 17
2017-08-01 15:00:00 31.1 13 Sur 32 Sudoeste 0 -- -- 16
2017-08-01 14:00:00 30.2 13 Sur 23 Sur 0 -- -- 22
2017-08-01 13:00:00 28.2 5 Norte 15 Oeste 0 -- -- 27
2017-08-01 12:00:00 24.2 3 Noroeste 10 Noroeste 0 -- -- 50
2017-08-01 11:00:00 22 8 Sur 15 Sur 0 -- -- 65
2017-08-01 10:00:00 21.2 10 Sur 14 Sur 0 -- -- 75
2017-08-01 09:00:00 19.9 9 Sudeste 14 Sudeste 0 -- -- 86
2017-08-01 08:00:00 16.9 0 Calma 6 Sur 0 -- -- 90
2017-08-01 07:00:00 16.3 3 Noroeste 12 Noroeste 0 -- -- 79
2017-08-01 06:00:00 18.7 6 Oeste 19 Sudeste 0 -- -- 75
2017-08-01 05:00:00 18.1 8 Sudeste 14 Sudeste 0 -- -- 83
2017-08-01 04:00:00 17 0 Calma 6 Sudeste 0 -- -- 37
2017-08-01 03:00:00 16.6 4 Sur 5 Sur 0 -- -- 36
2017-08-01 02:00:00 16.7 0 Calma 4 Oeste 0 -- -- 37
2017-08-01 01:00:00 17 0 Calma 3 Sudeste 0 -- -- 38
2017-08-01 00:00:00 18.1 0 Calma 5 Sur 0 -- -- 36
2017-07-31 23:00:00 21.9 2 Oeste 11 Noroeste 0 -- -- 29
2017-07-31 22:00:00 26.7 5 Noroeste 11 Noroeste 0 -- -- 22
2017-07-31 21:00:00 30 4 Oeste 24 Noroeste 0 -- -- 18
2017-07-31 20:00:00 32.8 10 Oeste 27 Oeste 0 -- -- 16
2017-07-31 19:00:00 33.5 16 Oeste 33 Sudoeste 0 -- -- 15
2017-07-31 18:00:00 33.8 15 Sudoeste 42 Sur 0 -- -- 14
2017-07-31 17:00:00 34.4 21 Sur 40 Sur 0 -- -- 14
2017-07-31 16:00:00 34.3 14 Sudoeste 36 Sudoeste 0 -- -- 16
2017-07-31 15:00:00 33.5 13 Sudoeste 35 Sur 0 -- -- 17
2017-07-31 14:00:00 32.5 17 Sur 30 Sur 0 -- -- 22
2017-07-31 13:00:00 31.2 12 Sudoeste 27 Sur 0 -- -- 26
2017-07-31 12:00:00 29.5 11 Sudoeste 22 Sur 0 -- -- 31
2017-07-31 11:00:00 27.2 7 Sudoeste 20 Sur 0 -- -- 39
2017-07-31 10:00:00 24.4 13 Sur 24 Sudeste 0 -- -- 47
2017-07-31 09:00:00 22.3 10 Sudeste 22 Sudeste 0 -- -- 59
2017-07-31 08:00:00 19.3 4 Este 19 Sur 0 -- -- 70
2017-07-31 07:00:00 18.3 9 Sudeste 14 Sudeste 0 -- -- 74
2017-07-31 06:00:00 19.7 3 Norte 15 Sur 0 -- -- 67
2017-07-31 05:00:00 20.4 2 Norte 17 Sudeste 0 -- -- 64
2017-07-31 04:00:00 20.8 3 Este 14 Sudeste 0 -- -- 62
2017-07-31 03:00:00 22.2 8 Sudeste 24 Sudeste 0 -- -- 57
2017-07-31 02:00:00 23.5 15 Sudeste 23 Sudeste 0 -- -- 51
2017-07-31 01:00:00 23.5 5 Sudeste 12 Sudeste 0 -- -- 42
2017-07-31 00:00:00 23.4 6 Sudeste 14 Sudeste 0 -- -- 34
2017-07-30 23:00:00 22 0 Calma 4 Oeste 0 -- -- 36
2017-07-30 22:00:00 26.5 3 Oeste 10 Oeste 0 -- -- 28
2017-07-30 21:00:00 31.7 7 Oeste 30 Oeste 0 -- -- 20
2017-07-30 20:00:00 34.4 9 Oeste 27 Sudoeste 0 -- -- 18
2017-07-30 19:00:00 33 11 Sudoeste 35 Sudoeste 0 -- -- 17
2017-07-30 18:00:00 34.3 14 Oeste 36 Sudoeste 0 -- -- 18
2017-07-30 17:00:00 35.7 10 Sudoeste 30 Sur 0 -- -- 18
2017-07-30 16:00:00 35.6 12 Sudoeste 38 Sur 0 -- -- 16
2017-07-30 15:00:00 35.3 17 Sudoeste 32 Oeste 0 -- -- 17
2017-07-30 14:00:00 34.8 14 Sudoeste 29 Sudoeste 0 -- -- 18
2017-07-30 13:00:00 34.2 10 Sur 26 Sudoeste 0 -- -- 20
2017-07-30 12:00:00 32.4 9 Oeste 19 Sudoeste 0 -- -- 23
2017-07-30 11:00:00 30.4 5 Sudoeste 11 Sudoeste 0 -- -- 25
2017-07-30 10:00:00 27.5 4 Norte 9 Noroeste 0 -- -- 34
2017-07-30 09:00:00 23.4 3 Este 4 Sudeste 0 -- -- 41
2017-07-30 08:00:00 16.7 2 Sudeste 3 Sudeste 0 -- -- 58
2017-07-30 07:00:00 16.1 0 Calma 4 Sudoeste 0 -- -- 54
2017-07-30 06:00:00 16.5 2 Sur 5 Sudeste 0 -- -- 51
2017-07-30 05:00:00 17.5 0 Calma 5 Noroeste 0 -- -- 49
2017-07-30 04:00:00 19.4 3 Sudoeste 9 Sur 0 -- -- 43
2017-07-30 03:00:00 18.8 2 Sur 6 Sur 0 -- -- 44
2017-07-30 02:00:00 18.7 0 Calma 4 Sudoeste 0 -- -- 40
2017-07-30 01:00:00 19.4 2 Sudoeste 4 Sudoeste 0 -- -- 36
2017-07-30 00:00:00 19.6 0 Calma 4 Sudoeste 0 -- -- 31
2017-07-29 23:00:00 20.4 0 Calma 3 Sudoeste 0 -- -- 30
2017-07-29 22:00:00 22.7 2 Sudoeste 5 Oeste 0 -- -- 26
2017-07-29 21:00:00 30.4 4 Oeste 20 Noroeste 0 -- -- 17
2017-07-29 20:00:00 33.4 10 Noroeste 23 Noroeste 0 -- -- 16
2017-07-29 19:00:00 33.3 13 Noroeste 31 Noroeste 0 -- -- 17
2017-07-29 18:00:00 33.6 12 Noroeste 36 Oeste 0 -- -- 19
2017-07-29 17:00:00 35.9 12 Sudoeste 26 Oeste 0 -- -- 14
2017-07-29 16:00:00 33.5 12 Oeste 31 Oeste 0 -- -- 16
2017-07-29 15:00:00 34.8 12 Oeste 33 Oeste 0 -- -- 16
2017-07-29 14:00:00 34.1 10 Oeste 30 Sudoeste 0 -- -- 16
2017-07-29 13:00:00 33.2 10 Oeste 25 Oeste 0 -- -- 19
2017-07-29 12:00:00 31.3 7 Oeste 17 Sur 0 -- -- 23
2017-07-29 11:00:00 28.9 5 Sudoeste 15 Sur 0 -- -- 35
2017-07-29 10:00:00 26.5 4 Sudoeste 11 Sur 0 -- -- 42
2017-07-29 09:00:00 21.4 3 Norte 5 Noroeste 0 -- -- 69
2017-07-29 08:00:00 16.9 0 Calma 7 Sudoeste 0 -- -- 85
2017-07-29 07:00:00 16.9 5 Nordeste 12 Sur 0 -- -- 85
2017-07-29 06:00:00 17 0 Calma 5 Noroeste 0 -- -- 82
2017-07-29 05:00:00 19.5 2 Norte 26 Sudeste 0 -- -- 73
2017-07-29 04:00:00 20.9 18 Sur 26 Sur 0 -- -- 70
2017-07-29 03:00:00 21.3 12 Sur 26 Sur 0 -- -- 69
2017-07-29 02:00:00 22.5 18 Sur 25 Sur 0 -- -- 64
2017-07-29 01:00:00 23.3 14 Sur 21 Sur 0 -- -- 40
2017-07-29 00:00:00 19.5 2 Sudoeste 4 Sudoeste 0 -- -- 28
2017-07-28 23:00:00 20.9 2 Sudoeste 4 Oeste 0 -- -- 31
2017-07-28 22:00:00 24.7 2 Oeste 8 Norte 0 -- -- 25
2017-07-28 21:00:00 30.6 3 Noroeste 21 Norte 0 -- -- 19
2017-07-28 20:00:00 34.9 6 Noroeste 20 Noroeste 0 -- -- 15
2017-07-28 19:00:00 35.7 9 Noroeste 35 Oeste 0 -- -- 13
2017-07-28 18:00:00 35.7 13 Noroeste 30 Noroeste 0 -- -- 15
2017-07-28 17:00:00 36 11 Oeste 27 Sudoeste 0 -- -- 14
2017-07-28 16:00:00 35.1 13 Oeste 30 Oeste 0 -- -- 14
2017-07-28 15:00:00 34.5 13 Noroeste 27 Oeste 0 -- -- 15
2017-07-28 14:00:00 34 10 Oeste 29 Oeste 0 -- -- 19
2017-07-28 13:00:00 33.3 10 Oeste 20 Noroeste 0 -- -- 20
2017-07-28 12:00:00 31.4 10 Oeste 22 Oeste 0 -- -- 23
2017-07-28 11:00:00 29 6 Noroeste 13 Norte 0 -- -- 32
2017-07-28 10:00:00 26.7 3 Norte 8 Este 0 -- -- 41
2017-07-28 09:00:00 22.6 0 Calma 5 Sudeste 0 -- -- 48
2017-07-28 08:00:00 16.5 4 Sudeste 6 Noroeste 0 -- -- 67
2017-07-28 07:00:00 16 0 Calma 6 Sur 0 -- -- 64
2017-07-28 06:00:00 16.7 2 Sudoeste 6 Oeste 0 -- -- 59
2017-07-28 05:00:00 17.6 2 Norte 6 Sur 0 -- -- 53
2017-07-28 04:00:00 18.5 0 Calma 7 Sudoeste 0 -- -- 48
2017-07-28 03:00:00 20.1 2 Sur 9 Sur 0 -- -- 43
2017-07-28 02:00:00 21 3 Sudoeste 7 Sudoeste 0 -- -- 40
2017-07-28 01:00:00 20.4 3 Sudoeste 7 Oeste 0 -- -- 42
2017-07-28 00:00:00 20.8 0 Calma 3 Sudoeste 0 -- -- 40
2017-07-27 23:00:00 21.5 2 Sudoeste 4 Sudoeste 0 -- -- 38
2017-07-27 22:00:00 24.2 0 Calma 12 Noroeste 0 -- -- 34
2017-07-27 21:00:00 30.8 5 Noroeste 15 Oeste 0 -- -- 24
2017-07-27 20:00:00 34.2 9 Noroeste 21 Oeste 0 -- -- 20
2017-07-27 19:00:00 35.1 7 Oeste 28 Oeste 0 -- -- 20
2017-07-27 18:00:00 35.4 9 Noroeste 26 Noroeste 0 -- -- 18
2017-07-27 17:00:00 35.1 13 Oeste 27 Oeste 0 -- -- 19
2017-07-27 16:00:00 34.6 12 Oeste 26 Oeste 0 -- -- 21
2017-07-27 15:00:00 33.3 12 Noroeste 28 Noroeste 0 -- -- 25
2017-07-27 14:00:00 33 10 Oeste 23 Oeste 0 -- -- 24
2017-07-27 13:00:00 32 10 Sudoeste 22 Oeste 0 -- -- 27
2017-07-27 12:00:00 30.8 7 Oeste 19 Oeste 0 -- -- 30
2017-07-27 11:00:00 29 5 Sudoeste 16 Sur 0 -- -- 35
2017-07-27 10:00:00 26.6 6 Sur 12 Sur 0 -- -- 47
2017-07-27 09:00:00 22.1 2 Este 5 Noroeste 0 -- -- 63
2017-07-27 08:00:00 17 2 Noroeste 6 Este 0 -- -- 76
2017-07-27 07:00:00 15.5 2 Norte 4 Noroeste 0 -- -- 79
2017-07-27 06:00:00 16.7 2 Sur 6 Este 0 -- -- 77
2017-07-27 05:00:00 18.1 4 Este 8 Sudeste 0 -- -- 72
2017-07-27 04:00:00 17.9 4 Este 9 Sudeste 0 -- -- 68
2017-07-27 03:00:00 17.1 4 Sur 5 Sudeste 0 -- -- 55
2017-07-27 02:00:00 17.6 0 Calma 3 Sudeste 0 -- -- 54
2017-07-27 01:00:00 18.1 0 Calma 3 Sudoeste 0 -- -- 53
2017-07-27 00:00:00 18.9 0 Calma 4 Sur 0 -- -- 50
2017-07-26 23:00:00 20 0 Calma 3 Sudeste 0 -- -- 47
2017-07-26 22:00:00 23 0 Calma 10 Noroeste 0 -- -- 39
2017-07-26 21:00:00 28.2 5 Noroeste 17 Noroeste 0 -- -- 29
2017-07-26 20:00:00 31.2 5 Norte 22 Noroeste 0 -- -- 24
2017-07-26 19:00:00 31.8 9 Noroeste 28 Noroeste 0 -- -- 24
2017-07-26 18:00:00 31.7 14 Noroeste 29 Noroeste 0 -- -- 24
2017-07-26 17:00:00 31.7 15 Noroeste 31 Norte 0 -- -- 24
2017-07-26 16:00:00 30.8 14 Norte 28 Noroeste 0 -- -- 26
2017-07-26 15:00:00 29.7 14 Noroeste 29 Noroeste 0 -- -- 27
2017-07-26 14:00:00 28.7 12 Norte 28 Norte 0 -- -- 26
2017-07-26 13:00:00 27.5 12 Norte 24 Noroeste 0 -- -- 25
2017-07-26 12:00:00 25.6 14 Norte 27 Norte 0 -- -- 29
2017-07-26 11:00:00 24.1 10 Norte 18 Norte 0 -- -- 33
2017-07-26 10:00:00 21.9 7 Norte 14 Norte 0 -- -- 35
2017-07-26 09:00:00 17.9 3 Norte 6 Noroeste 0 -- -- 45
2017-07-26 08:00:00 12.6 0 Calma 5 Este 0 -- -- 61
2017-07-26 07:00:00 10.2 0 Calma 5 Norte 0 -- -- 68
2017-07-26 06:00:00 10.7 0 Calma 3 Sur 0 -- -- 69
2017-07-26 05:00:00 12.5 0 Calma 4 Sur 0 -- -- 63
2017-07-26 04:00:00 12.1 2 Sur 4 Sudoeste 0 -- -- 59
2017-07-26 03:00:00 13.2 0 Calma 3 Noroeste 0 -- -- 55
2017-07-26 02:00:00 14.8 0 Calma 8 Nordeste 0 -- -- 48
2017-07-26 01:00:00 17.3 3 Norte 12 Este 0 -- -- 41
2017-07-26 00:00:00 18.6 0 Calma 9 Sudeste 0 -- -- 36
2017-07-25 23:00:00 18.8 2 Sudeste 13 Noroeste 0 -- -- 38
2017-07-25 22:00:00 22.6 6 Norte 20 Norte 0 -- -- 29
2017-07-25 21:00:00 25.4 10 Norte 26 Norte 0 -- -- 24
2017-07-25 20:00:00 28.4 14 Norte 33 Norte 0 -- -- 20
2017-07-25 19:00:00 30 15 Norte 31 Noroeste 0 -- -- 17
2017-07-25 18:00:00 29.9 17 Noroeste 32 Noroeste 0 -- -- 18
2017-07-25 17:00:00 30 13 Noroeste 30 Norte 0 -- -- 17
2017-07-25 16:00:00 29.7 12 Norte 23 Norte 0 -- -- 18
2017-07-25 15:00:00 29.1 9 Norte 23 Norte 0 -- -- 20
2017-07-25 14:00:00 27.3 10 Norte 23 Noroeste 0 -- -- 24
2017-07-25 13:00:00 26.3 9 Noroeste 17 Norte 0 -- -- 20
2017-07-25 12:00:00 24.5 8 Noroeste 16 Noroeste 0 -- -- 30
2017-07-25 11:00:00 22.2 8 Noroeste 16 Norte 0 -- -- 41
2017-07-25 10:00:00 19.7 5 Noroeste 9 Noroeste 0 -- -- 50
2017-07-25 09:00:00 16.5 4 Noroeste 10 Norte 0 -- -- 62
2017-07-25 08:00:00 12.8 3 Nordeste 7 Norte 0 -- -- 76
2017-07-25 07:00:00 10.6 3 Norte 6 Nordeste 0 -- -- 83
2017-07-25 06:00:00 10.6 0 Calma 2 Sudoeste 0 -- -- 83
2017-07-25 05:00:00 11.7 0 Calma 5 Sur 0 -- -- 80
2017-07-25 04:00:00 12.8 0 Calma 6 Este 0 -- -- 75
2017-07-25 03:00:00 15 0 Calma 6 Nordeste 0 -- -- 66
2017-07-25 02:00:00 17.9 3 Este 12 Nordeste 0 -- -- 58
2017-07-25 01:00:00 19.4 6 Nordeste 17 Nordeste 0 -- -- 52
2017-07-25 00:00:00 20 4 Este 15 Nordeste 0 -- -- 48
2017-07-24 23:00:00 19.4 2 Norte 8 Nordeste 0 -- -- 42
2017-07-24 22:00:00 24.1 4 Norte 21 Norte 0 -- -- 31
2017-07-24 21:00:00 26.8 6 Norte 22 Noroeste 0 -- -- 28
2017-07-24 20:00:00 30.1 10 Norte 28 Noroeste 0 -- -- 24
2017-07-24 19:00:00 30.3 14 Noroeste 33 Norte 0 -- -- 23
2017-07-24 18:00:00 30.7 15 Noroeste 34 Noroeste 0 -- -- 23
2017-07-24 17:00:00 30.5 17 Noroeste 36 Noroeste 0 -- -- 21
2017-07-24 16:00:00 30.6 12 Norte 33 Noroeste 0 -- -- 26
2017-07-24 15:00:00 29.6 16 Norte 35 Noroeste 0 -- -- 28
2017-07-24 14:00:00 28.9 13 Norte 31 Norte 0 -- -- 31
2017-07-24 13:00:00 28.1 14 Norte 29 Noroeste 0 -- -- 33
2017-07-24 12:00:00 27.4 11 Norte 27 Noroeste 0 -- -- 34
2017-07-24 11:00:00 26.2 9 Norte 21 Noroeste 0 -- -- 37
2017-07-24 10:00:00 24.1 10 Norte 21 Noroeste 0 -- -- 44
2017-07-24 09:00:00 19.9 0 Calma 2 Nordeste 0 -- -- 76
2017-07-24 08:00:00 14.4 0 Calma 2 Sudeste 0 -- -- 97
2017-07-24 07:00:00 13.2 0 Calma 2 Sudeste 0 -- -- 94
2017-07-24 06:00:00 13.8 0 Calma 3 Sur 0 -- -- 90
2017-07-24 05:00:00 14.3 0 Calma 4 Sur 0 -- -- 79
2017-07-24 04:00:00 17 0 Calma 16 Sur 0 -- -- 55
2017-07-24 03:00:00 16.9 7 Sur 13 Sudeste 0 -- -- 47
2017-07-24 02:00:00 16.7 0 Calma 5 Oeste 0 -- -- 46
2017-07-24 01:00:00 17.7 0 Calma 6 Oeste 0 -- -- 41
2017-07-24 00:00:00 17.7 2 Oeste 6 Oeste 0 -- -- 40
2017-07-23 23:00:00 19.3 0 Calma 4 Oeste 0 -- -- 36
2017-07-23 22:00:00 24.4 0 Calma 18 Noroeste 0 -- -- 26
2017-07-23 21:00:00 28.2 14 Noroeste 27 Noroeste 0 -- -- 20
2017-07-23 20:00:00 31.1 15 Noroeste 30 Noroeste 0 -- -- 17
2017-07-23 19:00:00 32 15 Noroeste 35 Noroeste 0 -- -- 17
2017-07-23 18:00:00 32.3 20 Noroeste 37 Noroeste 0 -- -- 18
2017-07-23 17:00:00 32.3 15 Oeste 33 Oeste 0 -- -- 18
2017-07-23 16:00:00 31.8 15 Noroeste 35 Noroeste 0 -- -- 20
2017-07-23 15:00:00 32.3 12 Sudoeste 29 Sudoeste 0 -- -- 26
2017-07-23 14:00:00 30.2 8 Oeste 31 Sur 0 -- -- 29
2017-07-23 13:00:00 29.3 9 Sur 21 Sur 0 -- -- 35
2017-07-23 12:00:00 28.3 8 Sudoeste 22 Sur 0 -- -- 42
2017-07-23 11:00:00 26.2 13 Sur 23 Sur 0 -- -- 51
2017-07-23 10:00:00 24.7 12 Sur 16 Sur 0 -- -- 56
2017-07-23 09:00:00 22.2 3 Norte 10 Sudeste 0 -- -- 67
2017-07-23 08:00:00 18.3 7 Sudeste 12 Sudeste 0 -- -- 84
2017-07-23 07:00:00 16.9 6 Sudeste 13 Sudeste 0 -- -- 89
2017-07-23 06:00:00 15.1 2 Sudeste 4 Este 0 -- -- 91
2017-07-23 05:00:00 16.2 0 Calma 6 Sudeste 0 -- -- 82
2017-07-23 04:00:00 18.1 2 Noroeste 10 Sur 0 -- -- 73
2017-07-23 03:00:00 18.1 3 Este 18 Sur 0 -- -- 52
2017-07-23 02:00:00 18.4 4 Sudeste 17 Sudeste 0 -- -- 40
2017-07-23 01:00:00 16.2 2 Sur 4 Sudeste 0 -- -- 47
2017-07-23 00:00:00 16.8 2 Sudoeste 4 Sur 0 -- -- 45
2017-07-22 23:00:00 19 2 Sur 10 Sudoeste 0 -- -- 38
2017-07-22 22:00:00 21.6 7 Sur 11 Sudoeste 0 -- -- 32
2017-07-22 21:00:00 27.5 2 Sur 14 Sur 0 -- -- 23
2017-07-22 20:00:00 31.1 7 Oeste 24 Sudoeste 0 -- -- 18
2017-07-22 19:00:00 31.7 8 Oeste 27 Oeste 0 -- -- 17
2017-07-22 18:00:00 31.9 11 Sudoeste 28 Sudoeste 0 -- -- 16
2017-07-22 17:00:00 32 8 Oeste 28 Noroeste 0 -- -- 18
2017-07-22 16:00:00 31.6 10 Oeste 33 Sudoeste 0 -- -- 17
2017-07-22 15:00:00 30.6 11 Sudoeste 30 Sudoeste 0 -- -- 20
2017-07-22 14:00:00 29.7 10 Oeste 35 Noroeste 0 -- -- 22
2017-07-22 13:00:00 28.8 10 Sudoeste 23 Oeste 0 -- -- 27
2017-07-22 12:00:00 27.7 5 Sudoeste 16 Sudoeste 0 -- -- 33
2017-07-22 11:00:00 25.9 3 Oeste 10 Oeste 0 -- -- 38
2017-07-22 10:00:00 23.2 6 Sudoeste 14 Sur 0 -- -- 51
2017-07-22 09:00:00 19.7 8 Sudeste 12 Sudeste 0 -- -- 82
2017-07-22 08:00:00 16.1 0 Calma 3 Norte 0 -- -- 96
2017-07-22 07:00:00 16.2 0 Calma 10 Este 0 -- -- 92
2017-07-22 06:00:00 17 3 Este 9 Este 0 -- -- 95
2017-07-22 05:00:00 16.9 3 Este 14 Sudeste 0 -- -- 92
2017-07-22 04:00:00 17.4 6 Sur 17 Sur 0 -- -- 90
2017-07-22 03:00:00 18.2 14 Sur 24 Sur 0 -- -- 82
2017-07-22 02:00:00 18.1 18 Sur 24 Sur 0 -- -- 38
2017-07-22 01:00:00 15 2 Sudoeste 5 Sudoeste 0 -- -- 51
2017-07-22 00:00:00 15.8 0 Calma 3 Sudoeste 0 -- -- 48
2017-07-21 23:00:00 19.3 0 Calma 8 Oeste 0 -- -- 39
2017-07-21 22:00:00 23.9 5 Noroeste 15 Noroeste 0 -- -- 27
2017-07-21 21:00:00 26.9 7 Noroeste 24 Oeste 0 -- -- 25
2017-07-21 20:00:00 29.7 11 Oeste 26 Oeste 0 -- -- 21
2017-07-21 19:00:00 30.6 9 Sudoeste 25 Noroeste 0 -- -- 22
2017-07-21 18:00:00 30.6 13 Noroeste 30 Oeste 0 -- -- 22
2017-07-21 17:00:00 30.4 12 Noroeste 27 Noroeste 0 -- -- 23
2017-07-21 16:00:00 29.7 13 Sudoeste 32 Oeste 0 -- -- 23
2017-07-21 15:00:00 29.9 10 Sudoeste 30 Oeste 0 -- -- 25
2017-07-21 14:00:00 28.3 8 Oeste 22 Noroeste 0 -- -- 32
2017-07-21 13:00:00 27.8 8 Sudoeste 22 Sur 0 -- -- 32
2017-07-21 12:00:00 26.3 10 Sudoeste 25 Sudoeste 0 -- -- 41
2017-07-21 11:00:00 24.2 13 Sur 26 Sudeste 0 -- -- 56
2017-07-21 10:00:00 22.4 17 Sur 31 Sudeste 0 -- -- 65
2017-07-21 09:00:00 20.1 23 Sudeste 31 Sudeste 0 -- -- 77
2017-07-21 08:00:00 17.9 14 Sudeste 23 Sudeste 0 -- -- 89
2017-07-21 07:00:00 17.8 12 Sudeste 27 Sudeste 0 -- -- 88
2017-07-21 06:00:00 18.2 14 Sudeste 27 Sudeste 0 -- -- 86
2017-07-21 05:00:00 18.8 13 Sudeste 20 Sudeste 0 -- -- 84
2017-07-21 04:00:00 19.6 12 Sudeste 21 Sur 0 -- -- 82
2017-07-21 03:00:00 19.9 11 Sudeste 23 Sudeste 0 -- -- 84
2017-07-21 02:00:00 19.6 16 Sudeste 29 Sudeste 0 -- -- 84
2017-07-21 01:00:00 20.3 18 Sudeste 33 Sudeste 0 -- -- 81
2017-07-21 00:00:00 21.3 24 Sudeste 32 Sudeste 0 -- -- 73
2017-07-20 23:00:00 21.8 8 Sur 9 Sur 0 -- -- 36
2017-07-20 22:00:00 21.4 4 Sudoeste 9 Sudoeste 0 -- -- 43
2017-07-20 21:00:00 25.8 2 Sudoeste 16 Sur 0 -- -- 31
2017-07-20 20:00:00 30.2 3 Norte 20 Sur 0 -- -- 25
2017-07-20 19:00:00 29.8 10 Sudoeste 23 Sur 0 -- -- 25
2017-07-20 18:00:00 31 9 Oeste 22 Oeste 0 -- -- 26
2017-07-20 17:00:00 30.6 6 Noroeste 27 Oeste 0 -- -- 26
2017-07-20 16:00:00 30.1 9 Sudoeste 37 Sur 0 -- -- 26
2017-07-20 15:00:00 29.3 9 Sur 21 Sur 0 -- -- 30
2017-07-20 14:00:00 28.5 10 Oeste 26 Oeste 0 -- -- 29
2017-07-20 13:00:00 27.8 9 Sudoeste 29 Oeste 0 -- -- 31
2017-07-20 12:00:00 26.7 9 Noroeste 22 Noroeste 0 -- -- 32
2017-07-20 11:00:00 25.3 7 Sudoeste 15 Sudoeste 0 -- -- 37
2017-07-20 10:00:00 23.7 4 Norte 7 Norte 0 -- -- 41
2017-07-20 09:00:00 20.1 2 Norte 4 Este 0 -- -- 56
2017-07-20 08:00:00 14 2 Este 4 Sudeste 0 -- -- 77
2017-07-20 07:00:00 12.4 0 Calma 3 Sudoeste 0 -- -- 80
2017-07-20 06:00:00 13 0 Calma 3 Sudoeste 0 -- -- 78
2017-07-20 05:00:00 13.5 2 Oeste 3 Sudoeste 0 -- -- 76
2017-07-20 04:00:00 13.9 0 Calma 2 Sudeste 0 -- -- 74
2017-07-20 03:00:00 15.3 2 Oeste 5 Oeste 0 -- -- 65
2017-07-20 02:00:00 15.8 0 Calma 7 Noroeste 0 -- -- 67
2017-07-20 01:00:00 18.7 3 Oeste 14 Noroeste 0 -- -- 49
2017-07-20 00:00:00 20.5 5 Noroeste 12 Noroeste 0 -- -- 39
2017-07-19 23:00:00 22.1 0 Calma 16 Noroeste 0 -- -- 44
2017-07-19 22:00:00 24.6 5 Oeste 19 Noroeste 0 -- -- 35
2017-07-19 21:00:00 27.4 12 Noroeste 29 Noroeste 0 -- -- 26
2017-07-19 20:00:00 30.5 16 Oeste 32 Oeste 0 -- -- 22
2017-07-19 19:00:00 31.2 11 Oeste 30 Oeste 0 -- -- 25
2017-07-19 18:00:00 30.5 9 Sudoeste 36 Sur 0 -- -- 27
2017-07-19 17:00:00 31.9 10 Sudoeste 32 Sudoeste 0 -- -- 23
2017-07-19 16:00:00 31 17 Sur 32 Sur 0 -- -- 26
2017-07-19 15:00:00 30.6 16 Sur 33 Sur 0 -- -- 26
2017-07-19 14:00:00 30.3 13 Sudoeste 30 Sudoeste 0 -- -- 27
2017-07-19 13:00:00 28.4 12 Sudoeste 27 Sur 0 -- -- 34
2017-07-19 12:00:00 27.7 8 Sudoeste 21 Sur 0 -- -- 36
2017-07-19 11:00:00 25 10 Sudoeste 25 Sur 0 -- -- 49
2017-07-19 10:00:00 23.7 15 Sur 26 Sudeste 0 -- -- 51
2017-07-19 09:00:00 21.4 9 Sudeste 28 Sur 0 -- -- 55
2017-07-19 08:00:00 19 14 Sudeste 22 Sudeste 0 -- -- 64
2017-07-19 07:00:00 17.9 15 Sur 23 Sur 0 -- -- 68
2017-07-19 06:00:00 18.7 18 Sudeste 35 Sudeste 0 -- -- 62
2017-07-19 05:00:00 18.8 22 Sudeste 41 Sudeste 0 -- -- 66
2017-07-19 04:00:00 19.9 21 Sudeste 39 Sudeste 0 -- -- 64
2017-07-19 03:00:00 20.7 17 Sudeste 32 Sudeste 0 -- -- 63
2017-07-19 02:00:00 21.6 23 Sudeste 48 Sudeste 0 -- -- 55
2017-07-19 01:00:00 22.1 25 Sudeste 41 Sudeste 0 -- -- 44
2017-07-19 00:00:00 21.7 16 Sudeste 24 Sudeste 0 -- -- 45